createdAt,value
2019-05-29T00:00:38.208Z,13.69
2019-05-29T00:03:06.357Z,13.63
2019-05-29T00:05:34.234Z,13.62
2019-05-29T00:08:02.073Z,13.59
2019-05-29T00:10:29.891Z,13.58
2019-05-29T00:12:57.717Z,13.62
2019-05-29T00:15:25.596Z,13.64
2019-05-29T00:17:53.386Z,13.59
2019-05-29T00:20:21.181Z,13.57
2019-05-29T00:22:48.960Z,13.52
2019-05-29T00:25:16.733Z,13.46
2019-05-29T00:27:44.523Z,13.44
2019-05-29T00:30:13.513Z,13.32
2019-05-29T00:32:41.356Z,13.18
2019-05-29T00:35:10.233Z,13.15
2019-05-29T00:37:38.119Z,13.16
2019-05-29T00:40:06.714Z,13.10
2019-05-29T00:42:34.647Z,13.01
2019-05-29T00:45:02.737Z,12.92
2019-05-29T00:47:30.621Z,12.90
2019-05-29T00:49:59.257Z,12.81
2019-05-29T00:52:27.055Z,12.79
2019-05-29T00:54:54.836Z,12.75
2019-05-29T00:57:22.671Z,12.75
2019-05-29T00:59:50.435Z,12.76
2019-05-29T01:02:18.308Z,12.80
2019-05-29T01:04:46.171Z,12.85
2019-05-29T01:07:14.191Z,12.99
2019-05-29T01:09:42.045Z,12.97
2019-05-29T01:12:10.804Z,12.91
2019-05-29T01:14:49.560Z,12.86
2019-05-29T01:17:08.453Z,12.80
2019-05-29T01:19:36.235Z,12.81
2019-05-29T01:22:04.159Z,12.79
2019-05-29T01:24:32.043Z,12.79
2019-05-29T01:26:59.866Z,12.77
2019-05-29T01:29:27.661Z,12.76
2019-05-29T01:31:55.463Z,12.79
2019-05-29T01:34:23.981Z,12.77
2019-05-29T01:36:51.885Z,12.77
2019-05-29T01:39:19.641Z,12.80
2019-05-29T01:41:47.437Z,12.75
2019-05-29T01:44:15.382Z,12.68
2019-05-29T01:46:43.220Z,12.66
2019-05-29T01:49:11.038Z,12.63
2019-05-29T01:51:38.882Z,12.64
2019-05-29T01:54:06.750Z,12.64
2019-05-29T01:56:34.569Z,12.68
2019-05-29T01:59:02.370Z,12.66
2019-05-29T02:01:30.191Z,12.65
2019-05-29T02:03:57.990Z,12.72
2019-05-29T02:06:25.761Z,12.76
2019-05-29T02:08:53.537Z,12.82
2019-05-29T02:11:21.351Z,12.81
2019-05-29T02:13:49.110Z,12.78
2019-05-29T02:16:16.923Z,12.76
2019-05-29T02:18:44.747Z,12.73
2019-05-29T02:21:12.547Z,12.73
2019-05-29T02:23:40.307Z,12.66
2019-05-29T02:26:08.082Z,12.63
2019-05-29T02:28:35.891Z,12.58
2019-05-29T02:31:03.822Z,12.56
2019-05-29T02:33:31.640Z,12.54
2019-05-29T02:35:59.449Z,12.53
2019-05-29T02:38:27.674Z,12.49
2019-05-29T02:40:56.948Z,12.47
2019-05-29T02:43:25.994Z,12.51
2019-05-29T02:45:55.342Z,12.54
2019-05-29T02:48:24.964Z,12.66
2019-05-29T02:50:52.946Z,12.78
2019-05-29T02:53:22.260Z,12.77
2019-05-29T02:55:50.238Z,12.77
2019-05-29T02:58:18.065Z,12.72
2019-05-29T03:00:54.094Z,12.75
2019-05-29T03:03:24.425Z,12.72
2019-05-29T03:05:54.167Z,12.73
2019-05-29T03:08:22.362Z,12.66
2019-05-29T03:10:50.736Z,12.64
2019-05-29T03:13:18.704Z,12.65
2019-05-29T03:15:46.724Z,12.63
2019-05-29T03:18:14.603Z,12.52
2019-05-29T03:20:42.374Z,12.50
2019-05-29T03:23:10.211Z,12.49
2019-05-29T03:25:38.012Z,12.48
2019-05-29T03:28:05.801Z,12.48
2019-05-29T03:30:41.255Z,12.46
2019-05-29T03:33:03.322Z,12.42
2019-05-29T03:35:38.545Z,12.37
2019-05-29T03:38:00.794Z,12.38
2019-05-29T03:40:29.446Z,12.40
2019-05-29T03:42:58.256Z,12.42
2019-05-29T03:45:26.775Z,12.33
2019-05-29T03:47:55.157Z,12.34
2019-05-29T03:50:22.976Z,12.36
2019-05-29T03:52:51.069Z,12.43
2019-05-29T03:55:18.840Z,12.62
2019-05-29T03:57:46.665Z,12.43
2019-05-29T04:00:15.352Z,12.39
2019-05-29T04:02:43.117Z,12.28
2019-05-29T04:05:10.906Z,12.32
2019-05-29T04:07:38.737Z,12.36
2019-05-29T04:10:07.072Z,12.34
2019-05-29T04:12:35.513Z,12.32
2019-05-29T04:15:04.029Z,12.26
2019-05-29T04:17:35.498Z,12.21
2019-05-29T04:20:04.545Z,12.20
2019-05-29T04:22:43.427Z,12.31
2019-05-29T04:25:13.005Z,12.41
2019-05-29T04:27:42.172Z,12.42
2019-05-29T04:30:11.745Z,12.42
2019-05-29T04:32:41.297Z,12.47
2019-05-29T04:35:09.264Z,12.49
2019-05-29T04:37:39.398Z,12.48
2019-05-29T04:40:07.481Z,12.65
2019-05-29T04:42:36.962Z,12.58
2019-05-29T04:45:05.560Z,12.50
2019-05-29T04:47:35.083Z,12.48
2019-05-29T04:50:03.219Z,12.54
2019-05-29T04:52:31.460Z,12.66
2019-05-29T04:54:59.442Z,12.70
2019-05-29T04:57:27.233Z,12.81
2019-05-29T04:59:55.045Z,12.99
2019-05-29T05:02:22.821Z,12.85
2019-05-29T05:04:50.614Z,12.85
2019-05-29T05:07:18.459Z,12.97
2019-05-29T05:09:46.261Z,12.92
2019-05-29T05:12:14.080Z,13.00
2019-05-29T05:14:41.838Z,13.09
2019-05-29T05:17:24.968Z,13.12
2019-05-29T05:19:40.142Z,13.14
2019-05-29T05:22:08.086Z,13.11
2019-05-29T05:24:36.408Z,13.38
2019-05-29T05:27:04.389Z,13.33
2019-05-29T05:29:32.211Z,13.25
2019-05-29T05:32:00.098Z,13.34
2019-05-29T05:34:27.849Z,13.29
2019-05-29T05:36:55.649Z,13.16
2019-05-29T05:39:23.779Z,13.05
2019-05-29T05:41:51.817Z,13.07
2019-05-29T05:44:19.584Z,13.19
2019-05-29T05:46:47.393Z,13.46
2019-05-29T05:49:15.158Z,13.44
2019-05-29T05:51:44.698Z,13.58
2019-05-29T05:54:12.690Z,13.71
2019-05-29T05:56:41.704Z,13.74
2019-05-29T05:59:09.707Z,14.06
2019-05-29T06:01:37.941Z,14.40
2019-05-29T06:04:05.757Z,14.40
2019-05-29T06:06:33.902Z,14.46
2019-05-29T06:09:01.933Z,14.68
2019-05-29T06:11:29.742Z,14.94
2019-05-29T06:13:57.543Z,15.14
2019-05-29T06:16:25.373Z,15.00
2019-05-29T06:18:53.200Z,15.14
2019-05-29T06:21:21.103Z,15.09
2019-05-29T06:23:48.894Z,15.05
2019-05-29T06:26:16.671Z,15.05
2019-05-29T06:28:44.479Z,15.18
2019-05-29T06:31:12.279Z,16.04
2019-05-29T06:33:40.387Z,16.01
2019-05-29T06:36:09.228Z,15.47
2019-05-29T06:38:37.643Z,15.47
2019-05-29T06:41:05.488Z,15.43
2019-05-29T06:43:33.806Z,15.47
2019-05-29T06:46:01.670Z,15.19
2019-05-29T06:48:58.790Z,15.24
2019-05-29T06:50:59.378Z,15.30
2019-05-29T06:53:27.176Z,15.84
2019-05-29T06:55:56.577Z,16.31
2019-05-29T06:58:24.724Z,16.32
2019-05-29T07:00:52.536Z,16.47
2019-05-29T07:03:20.505Z,16.44
2019-05-29T07:05:51.383Z,16.38
2019-05-29T07:08:28.971Z,16.16
2019-05-29T07:10:48.500Z,16.06
2019-05-29T07:13:16.363Z,16.13
2019-05-29T07:15:45.825Z,16.10
2019-05-29T07:18:13.886Z,15.82
2019-05-29T07:20:42.663Z,15.94
2019-05-29T07:23:10.589Z,15.40
2019-05-29T07:25:38.741Z,15.62
2019-05-29T07:28:06.660Z,15.62
2019-05-29T07:30:34.482Z,15.92
2019-05-29T07:33:02.382Z,16.45
2019-05-29T07:35:30.334Z,17.13
2019-05-29T07:37:58.299Z,18.18
2019-05-29T07:40:26.076Z,18.07
2019-05-29T07:42:56.595Z,17.56
2019-05-29T07:45:23.588Z,16.68
2019-05-29T07:47:51.405Z,16.88
2019-05-29T07:50:19.406Z,16.78
2019-05-29T07:52:48.704Z,16.77
2019-05-29T07:55:16.816Z,17.21
2019-05-29T07:57:44.882Z,18.21
2019-05-29T08:00:13.634Z,19.43
2019-05-29T08:02:41.613Z,21.82
2019-05-29T08:05:10.028Z,23.15
2019-05-29T08:07:39.281Z,24.79
2019-05-29T08:10:08.884Z,27.86
2019-05-29T08:12:41.078Z,28.33
2019-05-29T08:15:06.618Z,28.00
2019-05-29T08:17:34.535Z,29.01
2019-05-29T08:20:07.476Z,30.56
2019-05-29T08:22:34.527Z,32.08
2019-05-29T08:25:02.274Z,30.48
2019-05-29T08:27:30.040Z,30.16
2019-05-29T08:29:57.829Z,32.48
2019-05-29T08:32:25.583Z,29.48
2019-05-29T08:34:53.411Z,29.01
2019-05-29T08:37:21.210Z,30.25
2019-05-29T08:39:49.539Z,30.37
2019-05-29T08:42:23.108Z,27.49
2019-05-29T08:44:47.495Z,25.87
2019-05-29T08:47:15.381Z,28.93
2019-05-29T08:49:44.005Z,29.74
2019-05-29T08:52:12.884Z,31.82
2019-05-29T08:54:41.965Z,34.76
2019-05-29T08:57:09.904Z,35.28
2019-05-29T08:59:37.690Z,35.81
2019-05-29T09:02:05.531Z,37.22
2019-05-29T09:04:33.378Z,34.54
2019-05-29T09:07:01.224Z,33.31
2019-05-29T09:09:29.019Z,33.86
2019-05-29T09:11:56.805Z,34.75
2019-05-29T09:14:24.666Z,34.11
2019-05-29T09:16:52.552Z,36.84
2019-05-29T09:19:21.086Z,37.87
2019-05-29T09:21:49.271Z,36.34
2019-05-29T09:24:17.523Z,39.39
2019-05-29T09:26:46.629Z,41.36
2019-05-29T09:29:18.179Z,40.09
2019-05-29T09:31:44.342Z,37.23
2019-05-29T09:34:12.108Z,35.05
2019-05-29T09:36:39.920Z,35.15
2019-05-29T09:39:08.291Z,37.40
2019-05-29T09:41:36.100Z,35.97
2019-05-29T09:44:04.019Z,36.04
2019-05-29T09:46:31.943Z,39.39
2019-05-29T09:49:01.626Z,41.81
2019-05-29T09:51:29.513Z,41.20
2019-05-29T09:53:59.378Z,41.77
2019-05-29T09:56:27.103Z,44.02
2019-05-29T09:58:56.518Z,44.26
2019-05-29T10:01:25.640Z,44.09
2019-05-29T10:03:55.336Z,45.57
2019-05-29T10:06:23.495Z,47.11
2019-05-29T10:08:51.302Z,42.84
2019-05-29T10:11:19.111Z,41.96
2019-05-29T10:13:46.881Z,41.92
2019-05-29T10:16:14.689Z,43.56
2019-05-29T10:18:42.512Z,44.06
2019-05-29T10:21:10.299Z,45.46
2019-05-29T10:23:38.078Z,44.94
2019-05-29T10:26:06.549Z,44.33
2019-05-29T10:28:50.297Z,45.82
2019-05-29T10:31:05.096Z,46.00
2019-05-29T10:33:33.223Z,45.94
2019-05-29T10:36:04.027Z,44.12
2019-05-29T10:38:30.751Z,42.28
2019-05-29T10:41:06.302Z,42.32
2019-05-29T10:43:34.146Z,44.37
2019-05-29T10:45:57.977Z,44.47
2019-05-29T10:48:25.765Z,41.10
2019-05-29T10:50:54.231Z,33.63
2019-05-29T10:53:23.182Z,31.92
2019-05-29T10:55:51.014Z,35.02
2019-05-29T10:58:18.805Z,36.89
2019-05-29T11:00:47.093Z,37.15
2019-05-29T11:03:14.965Z,38.13
2019-05-29T11:05:42.840Z,41.36
2019-05-29T11:08:10.659Z,43.33
2019-05-29T11:10:38.439Z,40.07
2019-05-29T11:13:08.056Z,38.14
2019-05-29T11:15:35.859Z,39.93
2019-05-29T11:18:03.711Z,42.64
2019-05-29T11:20:31.505Z,42.87
2019-05-29T11:22:59.314Z,41.98
2019-05-29T11:25:27.883Z,41.68
2019-05-29T11:27:56.705Z,45.08
2019-05-29T11:30:24.815Z,44.78
2019-05-29T11:32:54.994Z,42.87
2019-05-29T11:35:22.285Z,43.61
2019-05-29T11:37:50.378Z,44.05
2019-05-29T11:40:18.625Z,46.45
2019-05-29T11:42:46.427Z,46.80
2019-05-29T11:45:15.524Z,48.09
2019-05-29T11:47:43.338Z,46.63
2019-05-29T11:50:19.312Z,45.31
2019-05-29T11:52:43.540Z,41.36
2019-05-29T11:55:12.416Z,37.80
2019-05-29T11:57:40.181Z,37.13
2019-05-29T12:00:19.098Z,38.60
2019-05-29T12:02:39.104Z,41.22
2019-05-29T12:05:08.013Z,44.81
2019-05-29T12:07:35.808Z,45.94
2019-05-29T12:10:06.211Z,46.31
2019-05-29T12:12:34.369Z,44.01
2019-05-29T12:15:12.111Z,43.59
2019-05-29T12:17:31.906Z,46.43
2019-05-29T12:20:03.993Z,47.02
2019-05-29T12:22:31.297Z,46.94
2019-05-29T12:25:00.275Z,43.53
2019-05-29T12:27:28.550Z,42.90
2019-05-29T12:29:56.679Z,45.23
2019-05-29T12:32:24.584Z,46.68
2019-05-29T12:34:55.040Z,46.23
2019-05-29T12:37:22.083Z,46.80
2019-05-29T12:39:49.860Z,47.52
2019-05-29T12:42:17.664Z,48.61
2019-05-29T12:44:45.463Z,49.08
2019-05-29T12:47:13.305Z,45.96
2019-05-29T12:49:41.145Z,43.26
2019-05-29T12:52:09.869Z,44.61
2019-05-29T12:54:38.086Z,46.43
2019-05-29T12:57:05.993Z,45.60
2019-05-29T12:59:33.786Z,45.89
2019-05-29T13:02:02.695Z,43.20
2019-05-29T13:04:30.641Z,39.26
2019-05-29T13:06:58.671Z,33.55
2019-05-29T13:09:26.653Z,30.95
2019-05-29T13:11:54.455Z,27.57
2019-05-29T13:14:22.382Z,25.96
2019-05-29T13:16:50.125Z,26.40
2019-05-29T13:19:17.971Z,25.04
2019-05-29T13:21:45.768Z,23.55
2019-05-29T13:24:13.588Z,22.98
2019-05-29T13:26:41.411Z,22.69
2019-05-29T13:29:09.289Z,22.47
2019-05-29T13:31:37.142Z,25.41
2019-05-29T13:34:05.013Z,26.90
2019-05-29T13:36:32.829Z,29.15
2019-05-29T13:39:00.620Z,29.96
2019-05-29T13:41:28.458Z,30.55
2019-05-29T13:43:56.506Z,27.89
2019-05-29T13:46:24.373Z,26.79
2019-05-29T13:48:52.316Z,25.62
2019-05-29T13:51:20.147Z,24.71
2019-05-29T13:54:02.007Z,23.12
2019-05-29T13:56:17.717Z,22.80
2019-05-29T13:58:45.523Z,22.68
2019-05-29T14:01:13.331Z,22.93
2019-05-29T14:03:41.160Z,22.90
2019-05-29T14:06:09.544Z,22.12
2019-05-29T14:08:37.483Z,22.10
2019-05-29T14:11:05.322Z,22.52
2019-05-29T14:13:33.098Z,21.76
2019-05-29T14:16:02.276Z,20.95
2019-05-29T14:18:30.301Z,20.51
2019-05-29T14:20:58.104Z,20.37
2019-05-29T14:23:25.881Z,20.31
2019-05-29T14:25:53.673Z,20.06
2019-05-29T14:28:21.481Z,19.95
2019-05-29T14:30:49.551Z,20.23
2019-05-29T14:33:17.377Z,20.64
2019-05-29T14:35:45.251Z,20.97
2019-05-29T14:38:15.079Z,21.09
2019-05-29T14:40:42.753Z,21.04
2019-05-29T14:43:13.694Z,20.77
2019-05-29T14:45:40.390Z,20.72
2019-05-29T14:48:08.288Z,20.56
2019-05-29T14:50:36.159Z,20.90
2019-05-29T14:53:05.019Z,20.96
2019-05-29T14:55:32.997Z,20.94
2019-05-29T14:58:00.821Z,21.08
2019-05-29T15:00:28.698Z,20.72
2019-05-29T15:02:56.528Z,20.62
2019-05-29T15:05:24.357Z,21.02
2019-05-29T15:07:52.134Z,20.96
2019-05-29T15:10:26.698Z,20.79
2019-05-29T15:12:49.765Z,20.83
2019-05-29T15:15:19.998Z,20.70
2019-05-29T15:17:47.808Z,20.78
2019-05-29T15:20:16.771Z,20.65
2019-05-29T15:22:45.044Z,20.76
2019-05-29T15:25:21.008Z,21.03
2019-05-29T15:27:43.249Z,20.91
2019-05-29T15:30:16.140Z,20.70
2019-05-29T15:32:41.485Z,20.75
2019-05-29T15:35:13.769Z,20.81
2019-05-29T15:37:39.452Z,20.65
2019-05-29T15:40:08.795Z,20.33
2019-05-29T15:42:37.220Z,20.28
2019-05-29T15:45:05.903Z,20.72
2019-05-29T15:47:33.720Z,20.62
2019-05-29T15:50:01.475Z,20.65
2019-05-29T15:52:29.295Z,20.49
2019-05-29T15:54:57.074Z,20.19
2019-05-29T15:57:24.923Z,20.12
2019-05-29T15:59:52.806Z,19.74
2019-05-29T16:02:20.666Z,19.55
2019-05-29T16:04:48.508Z,19.32
2019-05-29T16:07:16.333Z,19.17
2019-05-29T16:09:44.136Z,19.00
2019-05-29T16:12:12.728Z,18.94
2019-05-29T16:14:40.645Z,19.17
2019-05-29T16:17:09.002Z,19.20
2019-05-29T16:19:36.970Z,19.04
2019-05-29T16:22:04.783Z,19.05
2019-05-29T16:24:32.553Z,19.08
2019-05-29T16:27:08.208Z,19.15
2019-05-29T16:29:30.086Z,19.30
2019-05-29T16:31:57.898Z,19.51
2019-05-29T16:34:25.840Z,19.66
2019-05-29T16:36:53.670Z,19.60
2019-05-29T16:39:22.708Z,19.71
2019-05-29T16:41:50.669Z,19.51
2019-05-29T16:44:18.469Z,19.24
2019-05-29T16:46:46.275Z,19.13
2019-05-29T16:49:14.456Z,19.07
2019-05-29T16:51:42.403Z,19.00
2019-05-29T16:54:10.226Z,19.00
2019-05-29T16:56:38.043Z,18.91
2019-05-29T16:59:05.833Z,18.92
2019-05-29T17:01:33.619Z,18.89
2019-05-29T17:04:01.430Z,18.87
2019-05-29T17:06:29.208Z,18.76
2019-05-29T17:08:57.390Z,18.80
2019-05-29T17:11:25.288Z,18.87
2019-05-29T17:13:53.047Z,18.97
2019-05-29T17:16:20.963Z,18.78
2019-05-29T17:18:49.199Z,18.72
2019-05-29T17:21:18.385Z,18.54
2019-05-29T17:23:47.080Z,18.49
2019-05-29T17:26:14.972Z,18.43
2019-05-29T17:28:42.760Z,18.37
2019-05-29T17:31:10.629Z,18.44
2019-05-29T17:33:38.464Z,18.37
2019-05-29T17:36:06.282Z,18.16
2019-05-29T17:38:34.115Z,18.03
2019-05-29T17:41:01.934Z,18.00
2019-05-29T17:43:29.758Z,17.88
2019-05-29T17:45:57.597Z,17.78
2019-05-29T17:48:25.902Z,17.75
2019-05-29T17:50:53.925Z,17.73
2019-05-29T17:53:22.483Z,18.00
2019-05-29T17:55:50.507Z,17.85
2019-05-29T17:58:18.678Z,17.70
2019-05-29T18:00:47.270Z,17.59
2019-05-29T18:03:16.063Z,17.49
2019-05-29T18:05:44.031Z,17.42
2019-05-29T18:08:11.881Z,17.36
2019-05-29T18:10:39.811Z,17.26
2019-05-29T18:13:07.698Z,17.18
2019-05-29T18:15:35.529Z,17.12
2019-05-29T18:18:03.680Z,17.00
2019-05-29T18:20:31.498Z,16.94
2019-05-29T18:22:59.325Z,16.92
2019-05-29T18:25:28.100Z,16.81
2019-05-29T18:27:56.067Z,16.76
2019-05-29T18:30:26.369Z,16.74
2019-05-29T18:32:54.370Z,16.68
2019-05-29T18:35:22.908Z,16.60
2019-05-29T18:37:50.781Z,16.60
2019-05-29T18:40:22.374Z,16.55
2019-05-29T18:42:50.347Z,16.51
2019-05-29T18:45:21.531Z,16.52
2019-05-29T18:47:49.162Z,16.41
2019-05-29T18:50:17.292Z,16.35
2019-05-29T18:52:45.070Z,16.30
2019-05-29T18:55:13.031Z,16.34
2019-05-29T18:57:40.899Z,16.24
2019-05-29T19:00:09.554Z,16.13
2019-05-29T19:02:37.429Z,16.08
2019-05-29T19:05:06.067Z,16.06
2019-05-29T19:07:33.978Z,16.01
2019-05-29T19:10:01.923Z,15.96
2019-05-29T19:12:30.114Z,15.85
2019-05-29T19:14:57.977Z,15.83
2019-05-29T19:17:25.978Z,15.75
2019-05-29T19:19:53.868Z,15.66
2019-05-29T19:22:22.273Z,15.62
2019-05-29T19:24:50.165Z,15.61
2019-05-29T19:27:32.085Z,15.54
2019-05-29T19:29:47.745Z,15.45
2019-05-29T19:32:15.566Z,15.35
2019-05-29T19:34:43.370Z,15.30
2019-05-29T19:37:11.187Z,15.30
2019-05-29T19:39:38.989Z,15.23
2019-05-29T19:42:06.834Z,15.22
2019-05-29T19:44:34.715Z,15.20
2019-05-29T19:47:02.608Z,15.25
2019-05-29T19:49:30.902Z,15.18
2019-05-29T19:51:58.918Z,15.19
2019-05-29T19:54:27.443Z,15.19
2019-05-29T19:56:55.419Z,15.16
2019-05-29T19:59:23.253Z,15.20
2019-05-29T20:01:51.080Z,15.16
2019-05-29T20:04:18.944Z,15.14
2019-05-29T20:06:46.818Z,15.07
2019-05-29T20:09:14.620Z,14.95
2019-05-29T20:11:42.480Z,14.94
2019-05-29T20:14:10.287Z,14.97
2019-05-29T20:16:39.257Z,14.97
2019-05-29T20:19:07.248Z,14.98
2019-05-29T20:21:35.074Z,15.00
2019-05-29T20:24:03.262Z,14.99
2019-05-29T20:26:31.055Z,14.90
2019-05-29T20:28:58.871Z,14.86
2019-05-29T20:31:26.682Z,14.64
2019-05-29T20:33:54.577Z,14.59
2019-05-29T20:36:22.398Z,14.54
2019-05-29T20:38:50.232Z,14.55
2019-05-29T20:41:18.030Z,14.57
2019-05-29T20:43:45.831Z,14.57
2019-05-29T20:46:13.684Z,14.39
2019-05-29T20:48:42.753Z,14.40
2019-05-29T20:51:10.794Z,14.51
2019-05-29T20:53:40.294Z,14.49
2019-05-29T20:56:08.374Z,14.46
2019-05-29T20:58:36.177Z,14.40
2019-05-29T21:01:04.098Z,14.40
2019-05-29T21:03:32.274Z,14.45
2019-05-29T21:06:00.156Z,14.39
2019-05-29T21:08:27.946Z,14.38
2019-05-29T21:10:55.819Z,14.29
2019-05-29T21:13:23.893Z,14.27
2019-05-29T21:15:51.699Z,14.20
2019-05-29T21:18:20.333Z,14.11
2019-05-29T21:20:48.119Z,13.95
2019-05-29T21:23:15.972Z,13.85
2019-05-29T21:25:44.865Z,13.74
2019-05-29T21:28:12.764Z,13.82
2019-05-29T21:30:41.761Z,13.95
2019-05-29T21:33:09.668Z,14.03
2019-05-29T21:35:38.010Z,14.01
2019-05-29T21:38:05.893Z,13.85
2019-05-29T21:40:33.772Z,13.78
2019-05-29T21:43:01.632Z,13.58
2019-05-29T21:45:29.462Z,13.52
2019-05-29T21:47:57.294Z,13.43
2019-05-29T21:50:25.134Z,13.37
2019-05-29T21:52:54.774Z,13.31
2019-05-29T21:55:22.611Z,13.30
2019-05-29T21:57:50.507Z,13.42
2019-05-29T22:00:30.333Z,13.52
2019-05-29T22:02:58.248Z,13.57
2019-05-29T22:05:26.067Z,13.49
2019-05-29T22:07:54.025Z,13.32
2019-05-29T22:10:21.978Z,13.21
2019-05-29T22:12:50.326Z,13.08
2019-05-29T22:15:18.274Z,13.01
2019-05-29T22:17:47.153Z,12.97
2019-05-29T22:20:14.946Z,13.05
2019-05-29T22:22:42.784Z,13.09
2019-05-29T22:25:10.733Z,13.16
2019-05-29T22:27:38.553Z,13.05
2019-05-29T22:30:08.260Z,13.18
2019-05-29T22:32:36.027Z,13.06
2019-05-29T22:35:04.039Z,13.04
2019-05-29T22:37:31.783Z,13.09
2019-05-29T22:39:59.699Z,13.03
2019-05-29T22:42:27.496Z,12.88
2019-05-29T22:44:55.676Z,12.91
2019-05-29T22:47:23.502Z,12.85
2019-05-29T22:49:51.678Z,12.75
2019-05-29T22:52:19.543Z,12.67
2019-05-29T22:54:47.369Z,12.66
2019-05-29T22:57:15.145Z,12.71
2019-05-29T22:59:42.933Z,12.82
2019-05-29T23:02:10.825Z,12.78
2019-05-29T23:04:38.751Z,12.74
2019-05-29T23:07:06.544Z,12.81
2019-05-29T23:09:34.332Z,12.77
2019-05-29T23:12:02.523Z,12.85
2019-05-29T23:14:30.415Z,12.78
2019-05-29T23:16:58.616Z,12.74
2019-05-29T23:19:26.442Z,12.68
2019-05-29T23:21:54.422Z,12.72
2019-05-29T23:24:22.283Z,12.82
2019-05-29T23:26:50.128Z,12.76
2019-05-29T23:29:17.967Z,12.74
2019-05-29T23:31:45.850Z,12.64
2019-05-29T23:34:13.611Z,12.57
2019-05-29T23:36:41.401Z,12.44
2019-05-29T23:39:09.200Z,12.25
2019-05-29T23:41:37.028Z,12.10
2019-05-29T23:44:04.861Z,12.02
2019-05-29T23:46:32.729Z,11.98
2019-05-29T23:49:01.788Z,11.95
2019-05-29T23:51:29.724Z,12.09
2019-05-29T23:53:57.750Z,12.02
2019-05-29T23:56:25.561Z,12.07
2019-05-29T23:58:53.656Z,11.92
